sensor_id;sensor_type;location;lat;lon;timestamp;temperature;humidity
78775;DHT22;68119;43.398;3.676;2023-09-08T00:01:19;19.80;61.70
78775;DHT22;68119;43.398;3.676;2023-09-08T00:03:45;19.80;61.90
78775;DHT22;68119;43.398;3.676;2023-09-08T00:06:11;19.80;61.80
78775;DHT22;68119;43.398;3.676;2023-09-08T00:08:46;19.70;62.00
78775;DHT22;68119;43.398;3.676;2023-09-08T00:11:17;19.70;61.90
78775;DHT22;68119;43.398;3.676;2023-09-08T00:13:47;19.70;62.00
78775;DHT22;68119;43.398;3.676;2023-09-08T00:16:15;19.70;61.70
78775;DHT22;68119;43.398;3.676;2023-09-08T00:18:49;19.80;61.70
78775;DHT22;68119;43.398;3.676;2023-09-08T00:21:19;19.80;61.40
78775;DHT22;68119;43.398;3.676;2023-09-08T00:23:48;19.90;61.30
78775;DHT22;68119;43.398;3.676;2023-09-08T00:26:16;19.80;61.00
78775;DHT22;68119;43.398;3.676;2023-09-08T00:28:45;19.70;61.20
78775;DHT22;68119;43.398;3.676;2023-09-08T00:31:18;19.70;61.20
78775;DHT22;68119;43.398;3.676;2023-09-08T00:33:46;19.70;61.30
78775;DHT22;68119;43.398;3.676;2023-09-08T00:36:12;19.70;61.10
78775;DHT22;68119;43.398;3.676;2023-09-08T00:41:14;19.80;60.50
78775;DHT22;68119;43.398;3.676;2023-09-08T00:43:43;19.80;60.40
78775;DHT22;68119;43.398;3.676;2023-09-08T00:46:17;19.90;60.30
78775;DHT22;68119;43.398;3.676;2023-09-08T00:48:43;19.90;60.10
78775;DHT22;68119;43.398;3.676;2023-09-08T00:51:14;19.90;60.20
78775;DHT22;68119;43.398;3.676;2023-09-08T00:53:40;19.80;60.40
78775;DHT22;68119;43.398;3.676;2023-09-08T00:56:07;19.70;60.50
78775;DHT22;68119;43.398;3.676;2023-09-08T00:58:36;19.60;60.50
78775;DHT22;68119;43.398;3.676;2023-09-08T01:01:04;19.50;60.80
78775;DHT22;68119;43.398;3.676;2023-09-08T01:03:33;19.50;61.20
78775;DHT22;68119;43.398;3.676;2023-09-08T01:06:00;19.40;61.20
78775;DHT22;68119;43.398;3.676;2023-09-08T01:08:30;19.30;61.20
78775;DHT22;68119;43.398;3.676;2023-09-08T01:10:56;19.30;61.20
78775;DHT22;68119;43.398;3.676;2023-09-08T01:13:23;19.30;61.30
78775;DHT22;68119;43.398;3.676;2023-09-08T01:15:51;19.30;61.50
78775;DHT22;68119;43.398;3.676;2023-09-08T01:18:19;19.30;61.40
78775;DHT22;68119;43.398;3.676;2023-09-08T01:23:21;19.40;61.20
78775;DHT22;68119;43.398;3.676;2023-09-08T01:28:33;19.50;60.70
78775;DHT22;68119;43.398;3.676;2023-09-08T01:31:05;19.50;61.00
78775;DHT22;68119;43.398;3.676;2023-09-08T01:33:31;19.50;60.90
78775;DHT22;68119;43.398;3.676;2023-09-08T01:36:03;19.50;61.00
78775;DHT22;68119;43.398;3.676;2023-09-08T01:38:34;19.50;60.60
78775;DHT22;68119;43.398;3.676;2023-09-08T01:41:08;19.50;60.50
78775;DHT22;68119;43.398;3.676;2023-09-08T01:43:37;19.50;60.70
78775;DHT22;68119;43.398;3.676;2023-09-08T01:46:05;19.50;60.70
78775;DHT22;68119;43.398;3.676;2023-09-08T01:51:05;19.40;60.80
78775;DHT22;68119;43.398;3.676;2023-09-08T01:53:37;19.40;60.90
78775;DHT22;68119;43.398;3.676;2023-09-08T01:56:03;19.30;61.10
78775;DHT22;68119;43.398;3.676;2023-09-08T01:58:31;19.20;61.20
78775;DHT22;68119;43.398;3.676;2023-09-08T02:01:03;19.20;61.40
78775;DHT22;68119;43.398;3.676;2023-09-08T02:03:31;19.10;61.50
78775;DHT22;68119;43.398;3.676;2023-09-08T02:06:15;19.10;61.60
78775;DHT22;68119;43.398;3.676;2023-09-08T02:08:44;19.10;61.60
78775;DHT22;68119;43.398;3.676;2023-09-08T02:11:34;19.10;61.60
78775;DHT22;68119;43.398;3.676;2023-09-08T02:14:02;19.10;61.60
78775;DHT22;68119;43.398;3.676;2023-09-08T02:16:34;19.10;61.40
78775;DHT22;68119;43.398;3.676;2023-09-08T02:19:05;19.10;61.30
78775;DHT22;68119;43.398;3.676;2023-09-08T02:21:37;19.20;61.30
78775;DHT22;68119;43.398;3.676;2023-09-08T02:24:11;19.20;61.00
78775;DHT22;68119;43.398;3.676;2023-09-08T02:26:40;19.20;60.90
78775;DHT22;68119;43.398;3.676;2023-09-08T02:29:08;19.30;60.70
78775;DHT22;68119;43.398;3.676;2023-09-08T02:31:39;19.30;60.60
78775;DHT22;68119;43.398;3.676;2023-09-08T02:34:10;19.30;60.70
78775;DHT22;68119;43.398;3.676;2023-09-08T02:36:39;19.30;60.60
78775;DHT22;68119;43.398;3.676;2023-09-08T02:39:18;19.30;60.60
78775;DHT22;68119;43.398;3.676;2023-09-08T02:41:47;19.30;60.60
78775;DHT22;68119;43.398;3.676;2023-09-08T02:44:13;19.20;60.20
78775;DHT22;68119;43.398;3.676;2023-09-08T02:46:42;19.20;60.70
78775;DHT22;68119;43.398;3.676;2023-09-08T02:49:13;19.10;61.00
78775;DHT22;68119;43.398;3.676;2023-09-08T02:51:46;19.10;60.70
78775;DHT22;68119;43.398;3.676;2023-09-08T02:54:14;19.10;60.80
78775;DHT22;68119;43.398;3.676;2023-09-08T02:56:43;19.10;61.00
78775;DHT22;68119;43.398;3.676;2023-09-08T02:59:14;19.10;61.00
78775;DHT22;68119;43.398;3.676;2023-09-08T03:01:40;19.10;60.90
78775;DHT22;68119;43.398;3.676;2023-09-08T03:04:09;19.10;61.10
78775;DHT22;68119;43.398;3.676;2023-09-08T03:06:42;19.10;61.30
78775;DHT22;68119;43.398;3.676;2023-09-08T03:09:16;19.10;61.30
78775;DHT22;68119;43.398;3.676;2023-09-08T03:11:47;19.10;61.10
78775;DHT22;68119;43.398;3.676;2023-09-08T03:14:16;19.00;61.50
78775;DHT22;68119;43.398;3.676;2023-09-08T03:16:47;19.00;61.60
78775;DHT22;68119;43.398;3.676;2023-09-08T03:19:13;19.00;61.90
78775;DHT22;68119;43.398;3.676;2023-09-08T03:21:42;18.90;61.70
78775;DHT22;68119;43.398;3.676;2023-09-08T03:24:10;18.90;61.50
78775;DHT22;68119;43.398;3.676;2023-09-08T03:26:36;18.90;61.50
78775;DHT22;68119;43.398;3.676;2023-09-08T03:29:09;18.90;61.50
78775;DHT22;68119;43.398;3.676;2023-09-08T03:31:35;18.90;61.40
78775;DHT22;68119;43.398;3.676;2023-09-08T03:34:05;18.90;61.40
78775;DHT22;68119;43.398;3.676;2023-09-08T03:36:36;18.80;61.90
78775;DHT22;68119;43.398;3.676;2023-09-08T03:39:04;18.80;62.20
78775;DHT22;68119;43.398;3.676;2023-09-08T03:41:35;18.70;62.40
78775;DHT22;68119;43.398;3.676;2023-09-08T03:44:15;18.80;62.70
78775;DHT22;68119;43.398;3.676;2023-09-08T03:46:49;18.70;62.80
78775;DHT22;68119;43.398;3.676;2023-09-08T03:49:20;18.70;63.00
78775;DHT22;68119;43.398;3.676;2023-09-08T03:51:46;18.60;63.50
78775;DHT22;68119;43.398;3.676;2023-09-08T03:54:17;18.60;63.60
78775;DHT22;68119;43.398;3.676;2023-09-08T03:56:43;18.60;63.50
78775;DHT22;68119;43.398;3.676;2023-09-08T03:59:11;18.60;63.50
78775;DHT22;68119;43.398;3.676;2023-09-08T04:01:37;18.60;63.60
78775;DHT22;68119;43.398;3.676;2023-09-08T04:04:05;18.60;63.50
78775;DHT22;68119;43.398;3.676;2023-09-08T04:06:36;18.60;63.40
78775;DHT22;68119;43.398;3.676;2023-09-08T04:09:02;18.50;63.60
78775;DHT22;68119;43.398;3.676;2023-09-08T04:11:28;18.50;63.80
78775;DHT22;68119;43.398;3.676;2023-09-08T04:13:57;18.50;63.60
78775;DHT22;68119;43.398;3.676;2023-09-08T04:16:26;18.50;63.10
78775;DHT22;68119;43.398;3.676;2023-09-08T04:18:55;18.50;62.80
78775;DHT22;68119;43.398;3.676;2023-09-08T04:21:25;18.50;62.80
78775;DHT22;68119;43.398;3.676;2023-09-08T04:23:53;18.50;62.90
78775;DHT22;68119;43.398;3.676;2023-09-08T04:26:22;18.50;63.20
78775;DHT22;68119;43.398;3.676;2023-09-08T04:28:51;18.50;63.50
78775;DHT22;68119;43.398;3.676;2023-09-08T04:31:20;18.40;63.70
78775;DHT22;68119;43.398;3.676;2023-09-08T04:33:48;18.40;63.40
78775;DHT22;68119;43.398;3.676;2023-09-08T04:36:21;18.50;63.40
78775;DHT22;68119;43.398;3.676;2023-09-08T04:38:52;18.50;63.60
78775;DHT22;68119;43.398;3.676;2023-09-08T04:41:28;18.60;64.40
78775;DHT22;68119;43.398;3.676;2023-09-08T04:43:54;18.60;64.60
78775;DHT22;68119;43.398;3.676;2023-09-08T04:46:23;18.70;65.20
78775;DHT22;68119;43.398;3.676;2023-09-08T04:48:49;18.70;64.60
78775;DHT22;68119;43.398;3.676;2023-09-08T04:51:16;18.70;64.00
78775;DHT22;68119;43.398;3.676;2023-09-08T04:53:44;18.70;64.00
78775;DHT22;68119;43.398;3.676;2023-09-08T04:56:13;18.60;64.50
78775;DHT22;68119;43.398;3.676;2023-09-08T04:58:52;18.60;64.80
78775;DHT22;68119;43.398;3.676;2023-09-08T05:01:23;18.70;65.00
78775;DHT22;68119;43.398;3.676;2023-09-08T05:03:54;18.80;65.00
78775;DHT22;68119;43.398;3.676;2023-09-08T05:06:26;18.80;64.90
78775;DHT22;68119;43.398;3.676;2023-09-08T05:08:53;18.90;64.80
78775;DHT22;68119;43.398;3.676;2023-09-08T05:11:21;18.90;64.80
78775;DHT22;68119;43.398;3.676;2023-09-08T05:13:51;18.90;65.00
78775;DHT22;68119;43.398;3.676;2023-09-08T05:16:24;19.00;64.90
78775;DHT22;68119;43.398;3.676;2023-09-08T05:19:13;19.00;64.90
78775;DHT22;68119;43.398;3.676;2023-09-08T05:21:39;19.00;64.70
78775;DHT22;68119;43.398;3.676;2023-09-08T05:24:12;19.00;64.60
78775;DHT22;68119;43.398;3.676;2023-09-08T05:26:42;19.00;64.60
78775;DHT22;68119;43.398;3.676;2023-09-08T05:29:11;19.00;64.20
78775;DHT22;68119;43.398;3.676;2023-09-08T05:31:37;19.10;64.00
78775;DHT22;68119;43.398;3.676;2023-09-08T05:34:06;19.10;63.80
78775;DHT22;68119;43.398;3.676;2023-09-08T05:36:44;19.10;63.60
78775;DHT22;68119;43.398;3.676;2023-09-08T05:39:16;19.10;63.20
78775;DHT22;68119;43.398;3.676;2023-09-08T05:44:23;19.20;62.90
78775;DHT22;68119;43.398;3.676;2023-09-08T05:46:52;19.20;62.70
78775;DHT22;68119;43.398;3.676;2023-09-08T05:49:18;19.20;62.70
78775;DHT22;68119;43.398;3.676;2023-09-08T05:51:45;19.20;62.40
78775;DHT22;68119;43.398;3.676;2023-09-08T05:54:17;19.30;62.30
78775;DHT22;68119;43.398;3.676;2023-09-08T05:56:46;19.30;62.30
78775;DHT22;68119;43.398;3.676;2023-09-08T05:59:26;19.30;62.10
78775;DHT22;68119;43.398;3.676;2023-09-08T06:01:55;19.40;62.10
78775;DHT22;68119;43.398;3.676;2023-09-08T06:04:20;19.40;62.00
78775;DHT22;68119;43.398;3.676;2023-09-08T06:06:52;19.50;61.90
78775;DHT22;68119;43.398;3.676;2023-09-08T06:09:18;19.50;61.70
78775;DHT22;68119;43.398;3.676;2023-09-08T06:11:47;19.60;61.70
78775;DHT22;68119;43.398;3.676;2023-09-08T06:14:13;19.70;62.10
78775;DHT22;68119;43.398;3.676;2023-09-08T06:16:42;19.70;62.10
78775;DHT22;68119;43.398;3.676;2023-09-08T06:19:12;19.70;62.10
78775;DHT22;68119;43.398;3.676;2023-09-08T06:21:41;19.70;61.50
78775;DHT22;68119;43.398;3.676;2023-09-08T06:24:13;19.90;60.80
78775;DHT22;68119;43.398;3.676;2023-09-08T06:26:39;20.00;60.10
78775;DHT22;68119;43.398;3.676;2023-09-08T06:29:05;20.00;60.30
78775;DHT22;68119;43.398;3.676;2023-09-08T06:31:39;20.00;59.80
78775;DHT22;68119;43.398;3.676;2023-09-08T06:34:08;20.10;59.50
78775;DHT22;68119;43.398;3.676;2023-09-08T06:36:43;20.20;59.60
78775;DHT22;68119;43.398;3.676;2023-09-08T06:39:12;20.30;59.70
78775;DHT22;68119;43.398;3.676;2023-09-08T06:41:40;20.30;59.80
78775;DHT22;68119;43.398;3.676;2023-09-08T06:44:21;20.40;59.30
78775;DHT22;68119;43.398;3.676;2023-09-08T06:46:47;20.50;59.00
78775;DHT22;68119;43.398;3.676;2023-09-08T06:49:16;20.60;59.10
78775;DHT22;68119;43.398;3.676;2023-09-08T06:51:42;20.60;58.90
78775;DHT22;68119;43.398;3.676;2023-09-08T06:54:24;20.70;58.90
78775;DHT22;68119;43.398;3.676;2023-09-08T06:56:50;20.80;59.00
78775;DHT22;68119;43.398;3.676;2023-09-08T06:59:24;20.90;59.20
78775;DHT22;68119;43.398;3.676;2023-09-08T07:01:51;21.00;59.00
78775;DHT22;68119;43.398;3.676;2023-09-08T07:04:20;21.20;59.10
78775;DHT22;68119;43.398;3.676;2023-09-08T07:06:49;21.40;59.10
78775;DHT22;68119;43.398;3.676;2023-09-08T07:09:15;21.50;59.20
78775;DHT22;68119;43.398;3.676;2023-09-08T07:11:54;21.60;59.00
78775;DHT22;68119;43.398;3.676;2023-09-08T07:14:20;21.80;58.70
78775;DHT22;68119;43.398;3.676;2023-09-08T07:16:47;21.90;58.30
78775;DHT22;68119;43.398;3.676;2023-09-08T07:19:13;21.90;58.20
78775;DHT22;68119;43.398;3.676;2023-09-08T07:21:41;22.10;58.30
78775;DHT22;68119;43.398;3.676;2023-09-08T07:24:12;22.10;58.20
78775;DHT22;68119;43.398;3.676;2023-09-08T07:26:38;22.20;58.50
78775;DHT22;68119;43.398;3.676;2023-09-08T07:29:07;22.20;58.50
78775;DHT22;68119;43.398;3.676;2023-09-08T07:31:37;22.30;58.60
78775;DHT22;68119;43.398;3.676;2023-09-08T07:34:08;22.40;58.60
78775;DHT22;68119;43.398;3.676;2023-09-08T07:36:35;22.50;58.30
78775;DHT22;68119;43.398;3.676;2023-09-08T07:39:06;22.60;57.70
78775;DHT22;68119;43.398;3.676;2023-09-08T07:41:32;22.70;57.20
78775;DHT22;68119;43.398;3.676;2023-09-08T07:44:01;22.80;56.50
78775;DHT22;68119;43.398;3.676;2023-09-08T07:46:30;22.90;56.40
78775;DHT22;68119;43.398;3.676;2023-09-08T07:48:57;23.00;55.80
78775;DHT22;68119;43.398;3.676;2023-09-08T07:51:24;23.10;55.60
78775;DHT22;68119;43.398;3.676;2023-09-08T07:53:51;23.60;54.00
78775;DHT22;68119;43.398;3.676;2023-09-08T07:56:21;23.90;54.10
78775;DHT22;68119;43.398;3.676;2023-09-08T07:58:47;27.60;48.50
78775;DHT22;68119;43.398;3.676;2023-09-08T08:01:18;29.70;44.70
78775;DHT22;68119;43.398;3.676;2023-09-08T08:03:44;29.00;44.70
78775;DHT22;68119;43.398;3.676;2023-09-08T08:06:15;31.00;42.80
78775;DHT22;68119;43.398;3.676;2023-09-08T08:08:43;33.70;39.20
78775;DHT22;68119;43.398;3.676;2023-09-08T08:11:14;35.50;37.30
78775;DHT22;68119;43.398;3.676;2023-09-08T08:13:46;36.80;35.50
78775;DHT22;68119;43.398;3.676;2023-09-08T08:16:12;35.40;35.70
78775;DHT22;68119;43.398;3.676;2023-09-08T08:18:41;31.30;40.20
78775;DHT22;68119;43.398;3.676;2023-09-08T08:21:07;28.90;43.50
78775;DHT22;68119;43.398;3.676;2023-09-08T08:23:33;27.40;45.30
78775;DHT22;68119;43.398;3.676;2023-09-08T08:25:59;26.60;46.50
78775;DHT22;68119;43.398;3.676;2023-09-08T08:28:28;26.40;47.10
78775;DHT22;68119;43.398;3.676;2023-09-08T08:31:05;26.40;47.00
78775;DHT22;68119;43.398;3.676;2023-09-08T08:33:34;26.40;46.90
78775;DHT22;68119;43.398;3.676;2023-09-08T08:36:02;26.40;46.40
78775;DHT22;68119;43.398;3.676;2023-09-08T08:38:35;26.50;46.40
78775;DHT22;68119;43.398;3.676;2023-09-08T08:41:04;26.50;46.60
78775;DHT22;68119;43.398;3.676;2023-09-08T08:43:31;26.80;46.80
78775;DHT22;68119;43.398;3.676;2023-09-08T08:45:57;27.00;46.50
78775;DHT22;68119;43.398;3.676;2023-09-08T08:48:24;27.10;46.50
78775;DHT22;68119;43.398;3.676;2023-09-08T08:50:57;27.20;46.70
78775;DHT22;68119;43.398;3.676;2023-09-08T08:53:25;27.20;47.00
78775;DHT22;68119;43.398;3.676;2023-09-08T08:55:57;27.20;46.90
78775;DHT22;68119;43.398;3.676;2023-09-08T08:58:25;27.30;47.00
78775;DHT22;68119;43.398;3.676;2023-09-08T09:00:56;27.20;46.10
78775;DHT22;68119;43.398;3.676;2023-09-08T09:03:25;27.20;45.80
78775;DHT22;68119;43.398;3.676;2023-09-08T09:05:56;27.20;46.10
78775;DHT22;68119;43.398;3.676;2023-09-08T09:08:27;27.30;45.90
78775;DHT22;68119;43.398;3.676;2023-09-08T09:10:53;27.40;46.40
78775;DHT22;68119;43.398;3.676;2023-09-08T09:13:24;27.50;46.50
78775;DHT22;68119;43.398;3.676;2023-09-08T09:15:53;27.50;46.80
78775;DHT22;68119;43.398;3.676;2023-09-08T09:18:23;27.50;46.40
78775;DHT22;68119;43.398;3.676;2023-09-08T09:20:53;27.50;45.70
78775;DHT22;68119;43.398;3.676;2023-09-08T09:25:57;27.70;46.00
78775;DHT22;68119;43.398;3.676;2023-09-08T09:28:23;27.80;45.70
78775;DHT22;68119;43.398;3.676;2023-09-08T09:30:52;27.90;45.50
78775;DHT22;68119;43.398;3.676;2023-09-08T09:33:22;27.90;45.80
78775;DHT22;68119;43.398;3.676;2023-09-08T09:35:49;28.00;45.10
78775;DHT22;68119;43.398;3.676;2023-09-08T09:38:18;28.10;45.10
78775;DHT22;68119;43.398;3.676;2023-09-08T09:40:44;28.20;45.40
78775;DHT22;68119;43.398;3.676;2023-09-08T09:43:14;28.30;45.70
78775;DHT22;68119;43.398;3.676;2023-09-08T09:45:41;28.50;44.50
78775;DHT22;68119;43.398;3.676;2023-09-08T09:48:12;28.50;44.50
78775;DHT22;68119;43.398;3.676;2023-09-08T09:50:43;28.50;43.30
78775;DHT22;68119;43.398;3.676;2023-09-08T09:53:11;28.50;43.50
78775;DHT22;68119;43.398;3.676;2023-09-08T09:55:38;28.50;43.60
78775;DHT22;68119;43.398;3.676;2023-09-08T09:58:08;28.60;43.70
78775;DHT22;68119;43.398;3.676;2023-09-08T10:00:35;28.90;43.30
78775;DHT22;68119;43.398;3.676;2023-09-08T10:03:04;29.00;43.40
78775;DHT22;68119;43.398;3.676;2023-09-08T10:05:31;28.90;42.60
78775;DHT22;68119;43.398;3.676;2023-09-08T10:08:00;29.00;43.30
78775;DHT22;68119;43.398;3.676;2023-09-08T10:10:26;29.20;42.50
78775;DHT22;68119;43.398;3.676;2023-09-08T10:13:00;29.40;42.50
78775;DHT22;68119;43.398;3.676;2023-09-08T10:15:30;29.40;41.80
78775;DHT22;68119;43.398;3.676;2023-09-08T10:17:56;29.40;41.80
78775;DHT22;68119;43.398;3.676;2023-09-08T10:20:23;29.40;41.70
78775;DHT22;68119;43.398;3.676;2023-09-08T10:22:53;29.00;43.00
78775;DHT22;68119;43.398;3.676;2023-09-08T10:25:24;29.30;43.70
78775;DHT22;68119;43.398;3.676;2023-09-08T10:27:55;29.50;43.10
78775;DHT22;68119;43.398;3.676;2023-09-08T10:30:21;29.40;42.10
78775;DHT22;68119;43.398;3.676;2023-09-08T10:32:48;29.70;42.70
78775;DHT22;68119;43.398;3.676;2023-09-08T10:35:15;30.00;41.20
78775;DHT22;68119;43.398;3.676;2023-09-08T10:37:43;30.30;41.40
78775;DHT22;68119;43.398;3.676;2023-09-08T10:40:22;30.60;40.10
78775;DHT22;68119;43.398;3.676;2023-09-08T10:42:48;30.50;38.90
78775;DHT22;68119;43.398;3.676;2023-09-08T10:45:19;30.50;39.20
78775;DHT22;68119;43.398;3.676;2023-09-08T10:50:18;30.80;39.00
78775;DHT22;68119;43.398;3.676;2023-09-08T10:52:44;31.20;39.20
78775;DHT22;68119;43.398;3.676;2023-09-08T10:55:11;31.50;37.80
78775;DHT22;68119;43.398;3.676;2023-09-08T10:57:40;31.80;37.80
78775;DHT22;68119;43.398;3.676;2023-09-08T11:00:10;32.10;37.50
78775;DHT22;68119;43.398;3.676;2023-09-08T11:02:42;32.80;37.40
78775;DHT22;68119;43.398;3.676;2023-09-08T11:05:09;32.50;36.40
78775;DHT22;68119;43.398;3.676;2023-09-08T11:07:37;32.70;36.60
78775;DHT22;68119;43.398;3.676;2023-09-08T11:10:06;32.80;36.60
78775;DHT22;68119;43.398;3.676;2023-09-08T11:12:32;33.20;36.30
78775;DHT22;68119;43.398;3.676;2023-09-08T11:17:32;33.60;36.50
78775;DHT22;68119;43.398;3.676;2023-09-08T11:20:02;34.40;35.30
78775;DHT22;68119;43.398;3.676;2023-09-08T11:22:40;35.20;34.70
78775;DHT22;68119;43.398;3.676;2023-09-08T11:25:06;36.90;33.30
78775;DHT22;68119;43.398;3.676;2023-09-08T11:27:37;39.50;30.80
78775;DHT22;68119;43.398;3.676;2023-09-08T11:30:05;42.00;28.50
78775;DHT22;68119;43.398;3.676;2023-09-08T11:32:35;42.40;27.90
78775;DHT22;68119;43.398;3.676;2023-09-08T11:35:04;42.90;27.90
78775;DHT22;68119;43.398;3.676;2023-09-08T11:37:36;43.60;27.20
78775;DHT22;68119;43.398;3.676;2023-09-08T11:40:02;43.60;27.20
78775;DHT22;68119;43.398;3.676;2023-09-08T11:42:31;44.40;26.20
78775;DHT22;68119;43.398;3.676;2023-09-08T11:44:59;44.20;26.80
78775;DHT22;68119;43.398;3.676;2023-09-08T11:47:24;44.50;26.60
78775;DHT22;68119;43.398;3.676;2023-09-08T11:50:01;45.00;26.70
78775;DHT22;68119;43.398;3.676;2023-09-08T11:52:28;45.00;26.30
78775;DHT22;68119;43.398;3.676;2023-09-08T11:54:54;43.90;27.00
78775;DHT22;68119;43.398;3.676;2023-09-08T11:57:20;44.10;27.00
78775;DHT22;68119;43.398;3.676;2023-09-08T11:59:46;44.40;26.70
78775;DHT22;68119;43.398;3.676;2023-09-08T12:02:14;44.30;26.50
78775;DHT22;68119;43.398;3.676;2023-09-08T12:04:42;44.50;26.20
78775;DHT22;68119;43.398;3.676;2023-09-08T12:07:14;44.70;26.30
78775;DHT22;68119;43.398;3.676;2023-09-08T12:09:41;44.50;26.70
78775;DHT22;68119;43.398;3.676;2023-09-08T12:12:11;44.70;26.50
78775;DHT22;68119;43.398;3.676;2023-09-08T12:14:40;45.10;26.50
78775;DHT22;68119;43.398;3.676;2023-09-08T12:17:09;45.00;27.10
78775;DHT22;68119;43.398;3.676;2023-09-08T12:27:01;44.20;27.50
78775;DHT22;68119;43.398;3.676;2023-09-08T12:29:31;44.60;27.00
78775;DHT22;68119;43.398;3.676;2023-09-08T12:31:56;44.70;26.70
78775;DHT22;68119;43.398;3.676;2023-09-08T12:34:25;44.80;27.50
78775;DHT22;68119;43.398;3.676;2023-09-08T12:42:01;45.80;26.70
78775;DHT22;68119;43.398;3.676;2023-09-08T12:49:22;45.10;26.80
78775;DHT22;68119;43.398;3.676;2023-09-08T12:51:56;44.30;27.60
78775;DHT22;68119;43.398;3.676;2023-09-08T12:54:24;45.80;26.30
78775;DHT22;68119;43.398;3.676;2023-09-08T12:56:50;46.40;26.20
78775;DHT22;68119;43.398;3.676;2023-09-08T13:04:14;46.00;25.90
78775;DHT22;68119;43.398;3.676;2023-09-08T13:09:11;40.80;29.70
78775;DHT22;68119;43.398;3.676;2023-09-08T13:11:37;43.20;28.00
78775;DHT22;68119;43.398;3.676;2023-09-08T13:16:31;44.70;26.30
78775;DHT22;68119;43.398;3.676;2023-09-08T13:31:18;45.10;26.20
78775;DHT22;68119;43.398;3.676;2023-09-08T13:46:28;45.30;26.10
78775;DHT22;68119;43.398;3.676;2023-09-08T14:06:28;40.00;29.40
78775;DHT22;68119;43.398;3.676;2023-09-08T14:16:17;40.70;28.70
78775;DHT22;68119;43.398;3.676;2023-09-08T14:18:43;38.50;30.10
78775;DHT22;68119;43.398;3.676;2023-09-08T14:21:09;38.60;30.40
78775;DHT22;68119;43.398;3.676;2023-09-08T14:23:50;37.30;31.00
78775;DHT22;68119;43.398;3.676;2023-09-08T14:26:16;37.10;31.70
78775;DHT22;68119;43.398;3.676;2023-09-08T14:28:48;36.90;31.50
78775;DHT22;68119;43.398;3.676;2023-09-08T14:31:18;34.50;33.30
78775;DHT22;68119;43.398;3.676;2023-09-08T14:33:44;33.80;33.90
78775;DHT22;68119;43.398;3.676;2023-09-08T14:36:21;33.50;34.60
78775;DHT22;68119;43.398;3.676;2023-09-08T14:38:48;33.00;35.60
78775;DHT22;68119;43.398;3.676;2023-09-08T14:41:22;33.00;35.40
78775;DHT22;68119;43.398;3.676;2023-09-08T14:43:51;32.60;35.80
78775;DHT22;68119;43.398;3.676;2023-09-08T14:46:32;31.50;37.20
78775;DHT22;68119;43.398;3.676;2023-09-08T14:48:58;31.20;38.00
78775;DHT22;68119;43.398;3.676;2023-09-08T14:51:28;31.50;38.50
78775;DHT22;68119;43.398;3.676;2023-09-08T14:53:54;31.10;41.90
78775;DHT22;68119;43.398;3.676;2023-09-08T14:56:20;31.90;41.60
78775;DHT22;68119;43.398;3.676;2023-09-08T14:58:54;32.10;40.80
78775;DHT22;68119;43.398;3.676;2023-09-08T15:01:22;31.60;41.70
78775;DHT22;68119;43.398;3.676;2023-09-08T15:04:03;31.10;41.20
78775;DHT22;68119;43.398;3.676;2023-09-08T15:06:32;31.40;40.70
78775;DHT22;68119;43.398;3.676;2023-09-08T15:09:03;31.40;40.90
78775;DHT22;68119;43.398;3.676;2023-09-08T15:11:29;30.90;44.70
78775;DHT22;68119;43.398;3.676;2023-09-08T15:13:55;30.30;47.00
78775;DHT22;68119;43.398;3.676;2023-09-08T15:16:26;30.30;45.20
78775;DHT22;68119;43.398;3.676;2023-09-08T15:18:52;30.70;44.60
78775;DHT22;68119;43.398;3.676;2023-09-08T15:21:18;30.90;44.80
78775;DHT22;68119;43.398;3.676;2023-09-08T15:23:52;30.40;45.00
78775;DHT22;68119;43.398;3.676;2023-09-08T15:26:19;30.20;45.40
78775;DHT22;68119;43.398;3.676;2023-09-08T15:28:47;29.80;46.40
78775;DHT22;68119;43.398;3.676;2023-09-08T15:31:32;30.10;46.40
78775;DHT22;68119;43.398;3.676;2023-09-08T15:33:58;30.10;46.20
78775;DHT22;68119;43.398;3.676;2023-09-08T15:36:24;30.70;45.00
78775;DHT22;68119;43.398;3.676;2023-09-08T15:38:54;30.70;45.60
78775;DHT22;68119;43.398;3.676;2023-09-08T15:41:20;31.60;44.20
78775;DHT22;68119;43.398;3.676;2023-09-08T15:43:47;32.20;43.20
78775;DHT22;68119;43.398;3.676;2023-09-08T15:46:21;32.40;42.80
78775;DHT22;68119;43.398;3.676;2023-09-08T15:51:42;31.00;43.90
78775;DHT22;68119;43.398;3.676;2023-09-08T15:54:10;30.70;44.40
78775;DHT22;68119;43.398;3.676;2023-09-08T15:56:38;30.50;44.80
78775;DHT22;68119;43.398;3.676;2023-09-08T15:59:04;30.30;44.50
78775;DHT22;68119;43.398;3.676;2023-09-08T16:01:30;29.90;45.70
78775;DHT22;68119;43.398;3.676;2023-09-08T16:04:10;30.10;45.20
78775;DHT22;68119;43.398;3.676;2023-09-08T16:06:41;30.10;45.20
78775;DHT22;68119;43.398;3.676;2023-09-08T16:09:09;29.70;45.70
78775;DHT22;68119;43.398;3.676;2023-09-08T16:14:28;29.00;46.70
78775;DHT22;68119;43.398;3.676;2023-09-08T16:17:01;28.70;47.60
78775;DHT22;68119;43.398;3.676;2023-09-08T16:19:42;28.50;48.40
78775;DHT22;68119;43.398;3.676;2023-09-08T16:22:07;28.50;48.00
78775;DHT22;68119;43.398;3.676;2023-09-08T16:24:33;28.30;48.90
78775;DHT22;68119;43.398;3.676;2023-09-08T16:27:00;28.50;48.10
78775;DHT22;68119;43.398;3.676;2023-09-08T16:29:29;28.80;48.20
78775;DHT22;68119;43.398;3.676;2023-09-08T16:31:57;28.50;48.90
78775;DHT22;68119;43.398;3.676;2023-09-08T16:34:25;28.30;49.50
78775;DHT22;68119;43.398;3.676;2023-09-08T16:36:54;28.30;49.50
78775;DHT22;68119;43.398;3.676;2023-09-08T16:39:20;28.50;49.00
78775;DHT22;68119;43.398;3.676;2023-09-08T16:41:48;28.50;49.00
78775;DHT22;68119;43.398;3.676;2023-09-08T16:44:25;28.30;49.30
78775;DHT22;68119;43.398;3.676;2023-09-08T16:46:53;28.00;50.00
78775;DHT22;68119;43.398;3.676;2023-09-08T16:49:19;27.60;50.60
78775;DHT22;68119;43.398;3.676;2023-09-08T16:51:45;27.60;50.80
78775;DHT22;68119;43.398;3.676;2023-09-08T16:57:05;27.50;51.00
78775;DHT22;68119;43.398;3.676;2023-09-08T16:59:36;27.50;51.20
78775;DHT22;68119;43.398;3.676;2023-09-08T17:02:03;27.40;50.90
78775;DHT22;68119;43.398;3.676;2023-09-08T17:04:34;27.20;51.40
78775;DHT22;68119;43.398;3.676;2023-09-08T17:07:03;27.10;51.60
78775;DHT22;68119;43.398;3.676;2023-09-08T17:09:32;27.00;52.00
78775;DHT22;68119;43.398;3.676;2023-09-08T17:12:01;27.40;51.60
78775;DHT22;68119;43.398;3.676;2023-09-08T17:14:29;27.40;51.50
78775;DHT22;68119;43.398;3.676;2023-09-08T17:16:55;27.30;51.90
78775;DHT22;68119;43.398;3.676;2023-09-08T17:19:27;27.10;52.20
78775;DHT22;68119;43.398;3.676;2023-09-08T17:21:55;27.30;51.90
78775;DHT22;68119;43.398;3.676;2023-09-08T17:24:28;27.10;52.00
78775;DHT22;68119;43.398;3.676;2023-09-08T17:26:55;27.00;52.40
78775;DHT22;68119;43.398;3.676;2023-09-08T17:29:24;26.80;52.60